Phillipsburg, Missouri
Current Conditions -  °F | °C
As of 4:55 AM on Friday 24 Oct 2014 (Local Time) from KH21 Reporting Station
Haze Haze  
Wind Chill: 57°   Ceiling: 400
Heat Index: 57°   Visibility: 5mi
Dew Point: 55°   Wind: 5mph
Humidity: 94%   Direction: 260°W
Pressure: 30.12"   Gusts: NA
Location:  37.55°N, 92.78°W
Report Text: KH21 240955Z AUTO 26004KT 5SM BR OVC004 14/13 A3012 RMK AO2
Loading
Personal Weather Stations






























Interactive Weather Map New forecast layout! Learn more

10-Day Weather Forecast

Advertisements
Track Severe Weather on mobile